Time;durP1;ratioP1;P1;durP2;ratioP2;P2;SDS_P1;SDS_P2;PMS_P1;PMS_P2;Temp;Humidity;BMP_temperature;BMP_pressure;BME280_temperature;BME280_humidity;BME280_pressure;Samples;Min_cycle;Max_cycle;Signal;HPM_P1;HPM_P2
2023/04/27 00:02:14;;;;;;;8.68;3.28;;;5.90;66.10;;;;;;5046927;28;20411;-67
2023/04/27 00:04:41;;;;;;;13.60;3.40;;;5.90;66.20;;;;;;5046454;28;20131;-67
2023/04/27 00:07:10;;;;;;;6.45;3.33;;;5.80;66.10;;;;;;5046820;28;20257;-68
2023/04/27 00:09:37;;;;;;;7.13;2.95;;;5.80;66.20;;;;;;5045845;28;20063;-67
2023/04/27 00:12:05;;;;;;;7.55;3.33;;;5.70;66.30;;;;;;5045015;28;20060;-67
2023/04/27 00:14:32;;;;;;;6.00;3.08;;;5.70;66.40;;;;;;5042558;28;20169;-68
2023/04/27 00:16:58;;;;;;;6.83;3.13;;;5.60;66.70;;;;;;5045417;28;20049;-67
2023/04/27 00:19:27;;;;;;;9.02;4.20;;;5.60;66.80;;;;;;5044624;28;20249;-67
2023/04/27 00:21:54;;;;;;;9.80;4.20;;;5.50;66.90;;;;;;5048305;28;20046;-67
2023/04/27 00:24:21;;;;;;;9.68;4.95;;;5.40;67.00;;;;;;5028426;28;20108;-67
2023/04/27 00:26:47;;;;;;;9.73;4.43;;;5.30;67.00;;;;;;5035880;28;20114;-67
2023/04/27 00:29:15;;;;;;;6.67;4.40;;;5.30;67.10;;;;;;5067898;28;20124;-67
2023/04/27 00:31:42;;;;;;;8.25;4.10;;;5.30;67.20;;;;;;5051694;28;20291;-67
2023/04/27 00:34:08;;;;;;;7.80;3.92;;;5.30;67.30;;;;;;5031509;28;20103;-67
2023/04/27 00:36:37;;;;;;;8.35;4.35;;;5.30;67.30;;;;;;5046950;28;20480;-67
2023/04/27 00:39:05;;;;;;;8.60;4.32;;;5.30;67.40;;;;;;5031009;28;20039;-67
2023/04/27 00:41:32;;;;;;;8.60;4.00;;;5.30;67.30;;;;;;5048123;28;20129;-67
2023/04/27 00:43:59;;;;;;;9.48;3.70;;;5.30;67.30;;;;;;5028124;28;20284;-67
2023/04/27 00:46:27;;;;;;;10.45;4.20;;;5.30;67.30;;;;;;5047675;28;20666;-67
2023/04/27 00:48:55;;;;;;;6.97;3.67;;;5.30;67.50;;;;;;5038185;28;20049;-67
2023/04/27 00:51:26;;;;;;;7.80;3.30;;;5.30;67.50;;;;;;5048029;28;20129;-67
2023/04/27 00:53:54;;;;;;;6.57;3.37;;;5.30;67.50;;;;;;5048511;28;20518;-67
2023/04/27 00:56:21;;;;;;;10.00;4.15;;;5.30;67.50;;;;;;5049367;28;20283;-68
2023/04/27 00:58:48;;;;;;;6.35;3.45;;;5.30;67.50;;;;;;5030643;28;20078;-67
2023/04/27 01:01:16;;;;;;;7.78;3.58;;;5.30;67.50;;;;;;5047893;28;20115;-68
2023/04/27 01:03:44;;;;;;;7.78;3.42;;;5.30;67.50;;;;;;5047657;28;20056;-67
2023/04/27 01:06:11;;;;;;;7.87;3.50;;;5.30;67.60;;;;;;5025437;28;20053;-67
2023/04/27 01:08:38;;;;;;;8.55;3.58;;;5.20;67.50;;;;;;5027854;28;20285;-67
2023/04/27 01:11:06;;;;;;;8.27;3.42;;;5.20;67.60;;;;;;5022179;28;20046;-67
2023/04/27 01:13:33;;;;;;;6.28;3.10;;;5.20;67.60;;;;;;5047739;28;20132;-67
2023/04/27 01:16:01;;;;;;;6.97;3.22;;;5.10;67.60;;;;;;5047526;28;20061;-67
2023/04/27 01:18:28;;;;;;;6.37;2.93;;;5.10;67.60;;;;;;5047660;28;20060;-67
2023/04/27 01:20:57;;;;;;;7.10;3.30;;;5.10;67.50;;;;;;5063917;28;20281;-67
2023/04/27 01:23:26;;;;;;;6.85;3.17;;;5.10;67.50;;;;;;5045196;28;20060;-67
2023/04/27 01:25:53;;;;;;;7.32;3.30;;;5.10;67.60;;;;;;5044172;28;20120;-67
2023/04/27 01:28:21;;;;;;;6.32;2.90;;;5.00;67.70;;;;;;5027273;28;20074;-67
2023/04/27 01:30:48;;;;;;;5.60;3.00;;;5.00;67.70;;;;;;5023231;28;20053;-67
2023/04/27 01:33:14;;;;;;;6.53;2.67;;;5.00;67.80;;;;;;5043521;28;20261;-66
2023/04/27 01:35:41;;;;;;;7.53;3.30;;;5.00;67.90;;;;;;5017962;28;20655;-67
2023/04/27 01:38:08;;;;;;;6.28;3.25;;;5.00;68.00;;;;;;5063873;28;20538;-67
2023/04/27 01:40:37;;;;;;;7.53;3.42;;;5.00;68.00;;;;;;5045604;28;20049;-67
2023/04/27 01:43:05;;;;;;;7.53;3.40;;;5.00;68.10;;;;;;5030979;28;20587;-67
2023/04/27 01:45:32;;;;;;;9.65;3.85;;;4.90;68.10;;;;;;5027251;28;20264;-67
2023/04/27 01:48:00;;;;;;;7.45;3.30;;;4.90;68.10;;;;;;5020059;28;20073;-67
2023/04/27 01:50:27;;;;;;;7.30;3.20;;;4.90;68.20;;;;;;5029903;28;20053;-67
2023/04/27 01:52:54;;;;;;;9.07;3.58;;;4.80;68.20;;;;;;5055226;28;20060;-67
2023/04/27 01:55:21;;;;;;;8.13;3.40;;;4.80;68.20;;;;;;5048871;28;20057;-67
2023/04/27 01:57:50;;;;;;;7.43;2.90;;;4.80;68.20;;;;;;5028247;28;20279;-68
2023/04/27 02:00:17;;;;;;;7.80;3.10;;;4.70;68.20;;;;;;5036512;28;20049;-66
2023/04/27 02:02:52;;;;;;;8.50;3.15;;;4.80;68.30;;;;;;5050426;28;20048;-67
2023/04/27 02:05:19;;;;;;;7.25;3.20;;;4.70;68.30;;;;;;5068519;28;20111;-67
2023/04/27 02:07:49;;;;;;;7.23;3.20;;;4.70;68.40;;;;;;5054109;28;20069;-67
2023/04/27 02:10:16;;;;;;;7.90;3.38;;;4.70;68.50;;;;;;5052029;28;20366;-67
2023/04/27 02:12:43;;;;;;;7.93;3.60;;;4.70;68.60;;;;;;5067208;28;20083;-67
2023/04/27 02:15:11;;;;;;;9.00;3.35;;;4.70;68.70;;;;;;5057552;28;20041;-67
2023/04/27 02:17:38;;;;;;;7.50;2.95;;;4.70;68.70;;;;;;5030610;28;20135;-68
2023/04/27 02:20:06;;;;;;;6.77;2.97;;;4.70;68.90;;;;;;5043326;28;20909;-67
2023/04/27 02:22:33;;;;;;;7.07;3.22;;;4.70;68.90;;;;;;5015748;28;20240;-67
2023/04/27 02:25:00;;;;;;;8.65;3.22;;;4.70;69.00;;;;;;5030208;28;20132;-67
2023/04/27 02:27:27;;;;;;;7.22;2.97;;;4.70;68.80;;;;;;5046676;28;20144;-67
2023/04/27 02:29:54;;;;;;;9.40;3.00;;;4.60;68.60;;;;;;5042566;28;20496;-67
2023/04/27 02:32:24;;;;;;;7.17;3.00;;;4.50;68.60;;;;;;5014356;28;20046;-67
2023/04/27 02:34:51;;;;;;;6.43;2.67;;;4.50;68.60;;;;;;5030426;28;20783;-67
2023/04/27 02:37:18;;;;;;;7.45;3.10;;;4.50;68.70;;;;;;5046509;28;20045;-67
2023/04/27 02:39:46;;;;;;;6.30;2.53;;;4.40;68.80;;;;;;5062560;28;20145;-67
2023/04/27 02:42:13;;;;;;;6.18;2.50;;;4.40;68.90;;;;;;5063340;28;20049;-67
2023/04/27 02:44:42;;;;;;;8.43;2.67;;;4.40;68.90;;;;;;5046355;28;20754;-67
2023/04/27 02:47:09;;;;;;;6.15;2.90;;;4.30;68.90;;;;;;5063212;28;20306;-67
2023/04/27 02:49:38;;;;;;;6.18;2.85;;;4.30;68.90;;;;;;5040399;28;20054;-67
2023/04/27 02:52:05;;;;;;;7.85;3.10;;;4.20;69.00;;;;;;5028232;28;20421;-67
2023/04/27 02:54:32;;;;;;;7.38;3.13;;;4.20;69.10;;;;;;5014330;28;20510;-67
2023/04/27 02:57:00;;;;;;;8.37;3.37;;;4.20;69.20;;;;;;5046041;28;20049;-67
2023/04/27 02:59:27;;;;;;;7.40;2.92;;;4.20;69.20;;;;;;5045769;28;20285;-68
2023/04/27 03:01:54;;;;;;;7.93;3.15;;;4.20;69.20;;;;;;5063375;28;20041;-67
2023/04/27 03:04:21;;;;;;;7.38;3.38;;;4.10;69.30;;;;;;5063703;28;20045;-67
2023/04/27 03:06:50;;;;;;;7.05;2.70;;;4.10;69.40;;;;;;5045364;28;20084;-67
2023/04/27 03:09:17;;;;;;;6.13;2.67;;;4.10;69.50;;;;;;5046795;28;20132;-67
2023/04/27 03:11:44;;;;;;;7.20;2.53;;;4.10;69.50;;;;;;5047556;28;20818;-67
2023/04/27 03:14:11;;;;;;;6.43;2.55;;;4.10;69.50;;;;;;5047874;28;20061;-66
2023/04/27 03:16:38;;;;;;;6.97;3.00;;;4.20;69.60;;;;;;5029476;28;20049;-69
2023/04/27 03:19:06;;;;;;;7.43;3.20;;;4.10;69.60;;;;;;5044811;28;20503;-66
2023/04/27 03:21:32;;;;;;;7.77;2.90;;;4.10;69.80;;;;;;5046102;28;20056;-67
2023/04/27 03:24:01;;;;;;;7.75;3.00;;;4.20;69.80;;;;;;5029077;28;20313;-67
2023/04/27 03:26:28;;;;;;;7.85;3.65;;;4.20;69.80;;;;;;5045598;28;20108;-66
2023/04/27 03:28:55;;;;;;;6.70;2.65;;;4.20;69.70;;;;;;5045507;28;20060;-67
2023/04/27 03:31:21;;;;;;;6.15;2.67;;;4.10;69.60;;;;;;5046008;28;20073;-67
2023/04/27 03:33:48;;;;;;;7.10;2.70;;;4.10;69.60;;;;;;5045780;28;20113;-67
2023/04/27 03:36:15;;;;;;;9.27;2.83;;;4.10;69.60;;;;;;5045841;28;20336;-67
2023/04/27 03:38:42;;;;;;;7.32;2.72;;;4.10;69.60;;;;;;5029035;28;20053;-67
2023/04/27 03:41:11;;;;;;;7.25;2.80;;;4.10;69.60;;;;;;5041924;28;20050;-67
2023/04/27 03:43:38;;;;;;;6.60;2.92;;;4.10;69.50;;;;;;5041638;28;20609;-66
2023/04/27 03:46:05;;;;;;;8.53;3.30;;;4.10;69.40;;;;;;5025555;28;20541;-67
2023/04/27 03:48:32;;;;;;;6.38;3.15;;;4.00;69.30;;;;;;5025454;28;20293;-67
2023/04/27 03:51:00;;;;;;;7.07;2.95;;;4.00;69.40;;;;;;5054484;28;20505;-67
2023/04/27 03:53:27;;;;;;;8.63;2.90;;;3.90;69.60;;;;;;5042070;28;20057;-67
2023/04/27 03:55:54;;;;;;;8.73;3.08;;;3.90;69.70;;;;;;5048056;28;20049;-67
2023/04/27 03:58:23;;;;;;;7.30;3.43;;;3.90;69.90;;;;;;5048936;28;20045;-67
2023/04/27 04:01:20;;;;;;;6.40;2.90;;;3.90;70.00;;;;;;5036694;28;20283;-67
2023/04/27 04:03:47;;;;;;;7.85;2.83;;;3.80;70.20;;;;;;5048858;28;20061;-68
2023/04/27 04:06:14;;;;;;;7.15;2.60;;;3.70;70.00;;;;;;5067104;28;20081;-67
2023/04/27 04:08:41;;;;;;;9.07;3.05;;;3.70;70.10;;;;;;5063756;28;20178;-67
2023/04/27 04:11:08;;;;;;;9.20;3.10;;;3.60;70.10;;;;;;5048253;28;20122;-67
2023/04/27 04:13:38;;;;;;;8.45;3.13;;;3.50;70.20;;;;;;5051800;28;20327;-67
2023/04/27 04:16:06;;;;;;;7.68;3.00;;;3.50;70.20;;;;;;5051899;28;20100;-67
2023/04/27 04:18:33;;;;;;;7.95;3.33;;;3.50;70.40;;;;;;5043214;28;20054;-68
2023/04/27 04:21:00;;;;;;;8.25;3.10;;;3.50;70.50;;;;;;5043630;28;20077;-67
2023/04/27 04:23:27;;;;;;;7.30;3.30;;;3.50;70.60;;;;;;5035406;28;20108;-67
2023/04/27 04:25:55;;;;;;;7.57;2.78;;;3.50;70.50;;;;;;5026782;28;20276;-69
2023/04/27 04:28:23;;;;;;;7.68;3.15;;;3.50;70.50;;;;;;5048787;28;20056;-69
2023/04/27 04:30:52;;;;;;;7.47;3.08;;;3.50;70.50;;;;;;5047833;28;20057;-67
2023/04/27 04:33:19;;;;;;;7.05;3.08;;;3.50;70.60;;;;;;5044232;28;20560;-67
2023/04/27 04:35:46;;;;;;;6.00;2.93;;;3.50;70.60;;;;;;5028138;28;20512;-67
2023/04/27 04:38:13;;;;;;;6.78;2.88;;;3.50;70.60;;;;;;5047756;28;20288;-67
2023/04/27 04:40:41;;;;;;;6.65;2.80;;;3.50;70.50;;;;;;5059326;28;20602;-67
2023/04/27 04:43:09;;;;;;;7.88;2.83;;;3.50;70.60;;;;;;5068613;28;20408;-68
2023/04/27 04:45:37;;;;;;;7.97;2.90;;;3.50;70.70;;;;;;5049898;28;20053;-68
2023/04/27 04:48:05;;;;;;;6.80;3.03;;;3.50;70.70;;;;;;5048185;28;20604;-68
2023/04/27 04:50:32;;;;;;;6.93;2.80;;;3.50;70.70;;;;;;5049321;28;20815;-67
2023/04/27 04:52:59;;;;;;;6.65;2.95;;;3.50;70.80;;;;;;5046164;28;20057;-67
2023/04/27 04:55:27;;;;;;;7.72;2.85;;;3.50;70.90;;;;;;5048057;28;20566;-67
2023/04/27 04:57:54;;;;;;;8.27;3.20;;;3.50;70.90;;;;;;5028585;28;20053;-67
2023/04/27 05:00:22;;;;;;;6.70;2.97;;;3.50;71.10;;;;;;5015493;28;20045;-67
2023/04/27 05:02:49;;;;;;;7.82;2.80;;;3.50;71.00;;;;;;5030924;28;21209;-67
2023/04/27 05:05:17;;;;;;;7.47;3.33;;;3.50;71.10;;;;;;5049702;28;20053;-67
2023/04/27 05:07:44;;;;;;;7.15;3.40;;;3.50;71.20;;;;;;5062645;28;20986;-67
2023/04/27 05:10:12;;;;;;;7.97;3.40;;;3.50;71.30;;;;;;5036998;28;20049;-68
2023/04/27 05:12:39;;;;;;;7.60;3.17;;;3.50;71.40;;;;;;5060370;28;20951;-67
2023/04/27 05:15:07;;;;;;;7.63;3.30;;;3.50;71.50;;;;;;5068328;28;20275;-67
2023/04/27 05:17:34;;;;;;;7.75;3.35;;;3.50;71.50;;;;;;5069873;28;20056;-67
2023/04/27 05:20:01;;;;;;;7.50;3.47;;;3.50;71.60;;;;;;5052566;28;20062;-67
2023/04/27 05:22:29;;;;;;;8.43;4.03;;;3.50;71.70;;;;;;5046277;28;20133;-67
2023/04/27 05:24:57;;;;;;;8.13;3.90;;;3.50;71.80;;;;;;5047679;28;20120;-68
2023/04/27 05:27:24;;;;;;;8.98;4.00;;;3.40;71.90;;;;;;5045273;28;20274;-67
2023/04/27 05:29:52;;;;;;;8.90;4.20;;;3.40;72.00;;;;;;5048392;28;20061;-67
2023/04/27 05:32:18;;;;;;;7.47;3.50;;;3.40;72.10;;;;;;5048865;28;20146;-67
2023/04/27 05:34:45;;;;;;;8.65;3.92;;;3.40;72.30;;;;;;5042255;28;20045;-67
2023/04/27 05:37:13;;;;;;;8.67;3.50;;;3.40;72.40;;;;;;5046702;28;20131;-67
2023/04/27 05:39:41;;;;;;;8.75;3.75;;;3.50;72.50;;;;;;5041859;28;20253;-67
2023/04/27 05:42:08;;;;;;;11.88;4.32;;;3.50;72.60;;;;;;5040895;28;20049;-67
2023/04/27 05:44:35;;;;;;;9.68;3.83;;;3.50;72.70;;;;;;5024516;28;20053;-67
2023/04/27 05:47:02;;;;;;;11.25;4.70;;;3.50;72.70;;;;;;5046088;28;20136;-67
2023/04/27 05:49:30;;;;;;;10.33;4.20;;;3.50;72.80;;;;;;5045456;28;20506;-68
2023/04/27 05:51:57;;;;;;;7.15;3.53;;;3.50;73.00;;;;;;5045311;28;20885;-67
2023/04/27 05:54:26;;;;;;;10.48;3.65;;;3.50;72.80;;;;;;5044846;28;20515;-67
2023/04/27 05:56:54;;;;;;;8.85;4.20;;;3.50;72.70;;;;;;5047346;28;20208;-67
2023/04/27 05:59:21;;;;;;;8.98;3.72;;;3.60;72.90;;;;;;5045698;28;20526;-67
2023/04/27 06:01:49;;;;;;;9.57;4.27;;;3.60;73.00;;;;;;5044242;28;20057;-67
2023/04/27 06:04:16;;;;;;;11.48;4.70;;;3.60;73.30;;;;;;5045867;28;20347;-68
2023/04/27 06:06:43;;;;;;;9.10;4.07;;;3.60;73.60;;;;;;5046614;28;20053;-67
2023/04/27 06:09:10;;;;;;;8.85;4.05;;;3.70;73.70;;;;;;5063214;28;20045;-67
2023/04/27 06:11:37;;;;;;;9.52;4.75;;;3.70;73.90;;;;;;5048496;28;20064;-67
2023/04/27 06:14:06;;;;;;;10.20;5.00;;;3.70;74.00;;;;;;5048319;28;20136;-67
2023/04/27 06:16:33;;;;;;;12.38;5.28;;;3.80;74.10;;;;;;5045187;28;20261;-67
2023/04/27 06:19:00;;;;;;;13.60;6.15;;;3.80;74.20;;;;;;5037797;28;20058;-67
2023/04/27 06:21:27;;;;;;;15.15;7.07;;;3.90;74.30;;;;;;5046102;28;20427;-67
2023/04/27 06:23:54;;;;;;;13.90;7.07;;;3.90;74.50;;;;;;5047206;28;20050;-67
2023/04/27 06:26:21;;;;;;;13.23;6.77;;;4.00;74.60;;;;;;5052082;28;20076;-67
2023/04/27 06:28:48;;;;;;;13.55;7.10;;;4.00;74.90;;;;;;5047620;28;20281;-67
2023/04/27 06:31:17;;;;;;;11.20;5.72;;;4.00;75.00;;;;;;5045916;28;20050;-68
2023/04/27 06:33:44;;;;;;;10.90;5.90;;;4.10;75.10;;;;;;5025880;28;20132;-68
2023/04/27 06:36:11;;;;;;;9.68;5.20;;;4.20;75.20;;;;;;5058068;28;20045;-68
2023/04/27 06:38:39;;;;;;;11.13;5.50;;;4.20;75.50;;;;;;5044650;28;20049;-68
2023/04/27 06:41:06;;;;;;;9.43;4.22;;;4.30;75.60;;;;;;5045418;28;20260;-68
2023/04/27 06:43:33;;;;;;;7.80;4.40;;;4.40;75.80;;;;;;5062129;28;20054;-68
2023/04/27 06:46:00;;;;;;;10.57;4.40;;;4.40;76.00;;;;;;5044550;28;20471;-68
2023/04/27 06:48:28;;;;;;;10.77;4.03;;;4.50;76.00;;;;;;5044621;28;20061;-68
2023/04/27 06:50:55;;;;;;;8.53;4.03;;;4.50;76.20;;;;;;5028069;28;20160;-68
2023/04/27 06:53:23;;;;;;;8.77;3.85;;;4.70;76.40;;;;;;5045455;28;20770;-67
2023/04/27 06:55:50;;;;;;;7.80;3.38;;;4.70;76.30;;;;;;5041230;28;20169;-68
2023/04/27 06:58:17;;;;;;;7.72;3.25;;;4.80;76.30;;;;;;5047512;28;20049;-68
2023/04/27 07:00:44;;;;;;;7.90;3.30;;;4.90;76.20;;;;;;5043992;28;20522;-68
2023/04/27 07:03:11;;;;;;;8.53;3.03;;;5.00;76.30;;;;;;5045656;28;20140;-68
2023/04/27 07:05:40;;;;;;;6.22;2.63;;;5.10;76.30;;;;;;5044441;28;20288;-68
2023/04/27 07:08:07;;;;;;;8.70;3.42;;;5.20;76.20;;;;;;5044723;28;20053;-68
2023/04/27 07:10:34;;;;;;;10.50;3.50;;;5.30;76.10;;;;;;5043506;28;20056;-68
2023/04/27 07:13:02;;;;;;;7.97;2.83;;;5.40;76.00;;;;;;5047681;28;20051;-68
2023/04/27 07:15:30;;;;;;;6.50;2.60;;;5.50;76.00;;;;;;5037865;28;20508;-68
2023/04/27 07:17:58;;;;;;;11.65;3.47;;;5.50;75.90;;;;;;5055467;28;21020;-67
2023/04/27 07:20:25;;;;;;;7.68;3.63;;;5.60;75.50;;;;;;5059130;28;20041;-67
2023/04/27 07:22:54;;;;;;;9.75;3.45;;;5.80;75.50;;;;;;5066886;28;20087;-68
2023/04/27 07:25:21;;;;;;;8.68;3.33;;;5.90;75.10;;;;;;5038800;28;20136;-67
2023/04/27 07:27:48;;;;;;;7.17;2.63;;;5.90;74.90;;;;;;5066107;28;20561;-68
2023/04/27 07:30:16;;;;;;;7.68;3.20;;;6.10;74.80;;;;;;5040237;28;20281;-67
2023/04/27 07:32:44;;;;;;;7.10;2.88;;;6.10;74.50;;;;;;5050988;28;20282;-67
2023/04/27 07:35:12;;;;;;;6.88;3.28;;;6.20;74.30;;;;;;5061928;28;20065;-67
2023/04/27 07:37:39;;;;;;;6.00;2.35;;;6.30;74.10;;;;;;5040380;28;20045;-67
2023/04/27 07:40:15;;;;;;;5.80;2.67;;;6.40;73.90;;;;;;5041975;28;20053;-68
2023/04/27 07:42:42;;;;;;;7.35;2.20;;;6.50;73.50;;;;;;5047954;28;20265;-67
2023/04/27 07:45:09;;;;;;;6.40;2.42;;;6.50;71.90;;;;;;5047737;28;20060;-67
2023/04/27 07:47:37;;;;;;;6.30;2.53;;;6.60;71.70;;;;;;5043161;28;20053;-67
2023/04/27 07:50:06;;;;;;;9.10;2.72;;;6.70;71.10;;;;;;5046678;28;20053;-68
2023/04/27 07:52:33;;;;;;;7.13;2.43;;;6.70;70.80;;;;;;5073694;28;20616;-67
2023/04/27 07:55:00;;;;;;;6.45;2.20;;;6.80;70.20;;;;;;5066140;28;20716;-67
2023/04/27 07:57:29;;;;;;;5.97;2.45;;;6.90;69.10;;;;;;5049976;28;20060;-68
2023/04/27 07:59:57;;;;;;;5.90;2.35;;;6.90;69.50;;;;;;5044522;28;20053;-68
2023/04/27 08:02:29;;;;;;;5.72;2.13;;;7.00;69.80;;;;;;5045563;28;20156;-68
2023/04/27 08:04:56;;;;;;;7.30;1.90;;;7.00;68.70;;;;;;5044670;28;20053;-67
2023/04/27 08:07:23;;;;;;;5.20;2.03;;;7.10;68.80;;;;;;5045802;28;20673;-68
2023/04/27 08:09:52;;;;;;;5.10;2.38;;;7.20;68.70;;;;;;5046686;28;20057;-68
2023/04/27 08:12:19;;;;;;;6.32;2.10;;;7.20;68.00;;;;;;5046897;28;20058;-67
2023/04/27 08:14:47;;;;;;;5.82;1.80;;;7.40;66.40;;;;;;5037574;28;20132;-67
2023/04/27 08:17:16;;;;;;;6.90;2.30;;;7.40;65.70;;;;;;5054273;28;20057;-68
2023/04/27 08:19:43;;;;;;;5.40;2.13;;;7.50;64.40;;;;;;5048538;28;20292;-67
2023/04/27 08:22:10;;;;;;;5.35;2.40;;;7.50;63.90;;;;;;5042295;28;20052;-68
2023/04/27 08:24:37;;;;;;;5.03;2.00;;;7.50;64.50;;;;;;5045176;28;20049;-67
2023/04/27 08:27:05;;;;;;;8.10;1.92;;;7.60;63.40;;;;;;5031763;28;20053;-68
2023/04/27 08:29:32;;;;;;;5.03;1.73;;;7.70;62.70;;;;;;5036982;28;20058;-68
2023/04/27 08:32:03;;;;;;;5.18;2.22;;;7.80;62.40;;;;;;5047352;28;20263;-68
2023/04/27 08:34:30;;;;;;;4.75;2.10;;;7.80;62.00;;;;;;5056572;28;20046;-68
2023/04/27 08:36:58;;;;;;;5.78;1.88;;;7.80;61.80;;;;;;5040694;28;20862;-68
2023/04/27 08:39:25;;;;;;;4.60;1.60;;;7.90;61.40;;;;;;5041395;28;20049;-68
2023/04/27 08:41:52;;;;;;;5.03;1.90;;;8.00;61.00;;;;;;5043789;28;20042;-68
2023/04/27 08:44:19;;;;;;;5.10;2.00;;;8.00;60.90;;;;;;5044154;28;20270;-68
2023/04/27 08:46:46;;;;;;;5.07;1.58;;;8.00;60.70;;;;;;5063033;28;20507;-68
2023/04/27 08:49:15;;;;;;;6.00;1.92;;;8.10;61.00;;;;;;5049655;28;20085;-68
2023/04/27 08:51:42;;;;;;;4.85;1.83;;;8.20;59.90;;;;;;5055199;28;20041;-68
2023/04/27 08:54:10;;;;;;;8.30;2.13;;;8.20;59.80;;;;;;5048284;28;20388;-68
2023/04/27 08:56:37;;;;;;;4.60;1.88;;;8.30;60.40;;;;;;4996101;28;20267;-68
2023/04/27 08:59:13;;;;;;;6.72;2.35;;;8.30;58.70;;;;;;5016083;28;20513;-68
2023/04/27 09:01:44;;;;;;;5.55;2.00;;;8.40;58.70;;;;;;5025771;28;20153;-68
2023/04/27 09:04:11;;;;;;;5.75;1.85;;;8.50;58.00;;;;;;5045596;28;20053;-68
2023/04/27 09:06:40;;;;;;;7.80;2.67;;;8.50;58.40;;;;;;5061991;28;20059;-68
2023/04/27 09:09:07;;;;;;;6.95;2.00;;;8.50;58.00;;;;;;5040327;28;21240;-68
2023/04/27 09:11:36;;;;;;;6.88;2.20;;;8.60;58.10;;;;;;5044833;28;20085;-68
2023/04/27 09:14:16;;;;;;;4.70;1.98;;;8.60;58.30;;;;;;5043378;28;20056;-68
2023/04/27 09:16:43;;;;;;;4.38;1.98;;;8.60;57.90;;;;;;5045162;28;20049;-68
2023/04/27 09:19:10;;;;;;;5.10;2.07;;;8.60;58.00;;;;;;5042227;28;20545;-68
2023/04/27 09:21:37;;;;;;;6.60;2.00;;;8.70;58.20;;;;;;5026957;28;20265;-68
2023/04/27 09:24:15;;;;;;;6.68;2.30;;;8.70;57.60;;;;;;5047747;28;20061;-68
2023/04/27 09:26:49;;;;;;;5.40;2.35;;;8.80;57.20;;;;;;5045328;28;20045;-68
2023/04/27 09:29:16;;;;;;;5.22;2.33;;;8.90;57.10;;;;;;5043934;28;20578;-69
2023/04/27 09:31:44;;;;;;;7.33;2.50;;;8.90;57.30;;;;;;5046060;28;20758;-68
2023/04/27 09:34:11;;;;;;;6.32;2.47;;;8.90;56.70;;;;;;5045767;28;20415;-68
2023/04/27 09:36:40;;;;;;;5.78;2.03;;;9.00;56.30;;;;;;5040526;28;20115;-68
2023/04/27 09:39:07;;;;;;;5.63;2.38;;;9.00;56.70;;;;;;5047737;28;20128;-68
2023/04/27 09:41:36;;;;;;;5.10;2.35;;;9.00;57.00;;;;;;5058136;28;20104;-68
2023/04/27 09:44:04;;;;;;;6.43;2.40;;;9.20;56.90;;;;;;5048521;28;20046;-68
2023/04/27 09:46:33;;;;;;;5.55;2.55;;;9.20;57.30;;;;;;5038881;28;21234;-68
2023/04/27 09:49:04;;;;;;;6.57;2.35;;;9.20;56.50;;;;;;5033072;28;20050;-68
2023/04/27 09:51:31;;;;;;;6.10;2.10;;;9.30;56.00;;;;;;5037267;28;20160;-69
2023/04/27 09:54:02;;;;;;;6.03;2.33;;;9.30;57.10;;;;;;5027586;28;20127;-69
2023/04/27 09:56:41;;;;;;;5.97;2.10;;;9.40;57.10;;;;;;5037531;28;20459;-68
2023/04/27 09:59:30;;;;;;;6.32;2.45;;;9.40;56.90;;;;;;5030357;28;20261;-68
2023/04/27 10:02:00;;;;;;;5.40;2.50;;;9.50;56.60;;;;;;5043939;28;20061;-68
2023/04/27 10:04:45;;;;;;;6.75;2.65;;;9.50;56.40;;;;;;5038208;28;20160;-68
2023/04/27 10:07:14;;;;;;;6.30;2.28;;;9.60;55.50;;;;;;5042887;28;20050;-68
2023/04/27 10:09:43;;;;;;;4.90;2.43;;;9.60;55.60;;;;;;5040043;28;20571;-68
2023/04/27 10:12:17;;;;;;;5.80;1.52;;;9.70;55.80;;;;;;5042271;28;20344;-68
2023/04/27 10:14:49;;;;;;;6.85;2.88;;;9.70;54.80;;;;;;5035440;28;20053;-68
2023/04/27 10:17:16;;;;;;;6.20;2.90;;;9.80;54.80;;;;;;5047343;28;20057;-68
2023/04/27 10:19:54;;;;;;;5.65;2.53;;;9.80;54.80;;;;;;5043517;28;21125;-69
2023/04/27 10:22:21;;;;;;;5.73;2.60;;;9.80;54.70;;;;;;5041358;28;20050;-68
2023/04/27 10:24:50;;;;;;;6.80;2.67;;;9.90;55.30;;;;;;5058261;28;20277;-68
2023/04/27 10:27:21;;;;;;;7.05;2.83;;;10.00;55.00;;;;;;5038698;28;20076;-68
2023/04/27 10:29:49;;;;;;;5.15;2.10;;;10.00;54.80;;;;;;5037676;28;20136;-69
2023/04/27 10:32:22;;;;;;;6.20;2.70;;;10.00;55.30;;;;;;5044536;28;20157;-69
2023/04/27 10:34:50;;;;;;;7.27;2.80;;;10.10;54.80;;;;;;5046649;28;20049;-69
2023/04/27 10:37:20;;;;;;;6.15;2.60;;;10.20;55.30;;;;;;5039200;28;20252;-69
2023/04/27 10:39:48;;;;;;;5.45;2.30;;;10.20;54.70;;;;;;5041013;28;20965;-69
2023/04/27 10:42:48;;;;;;;4.80;2.63;;;10.30;54.60;;;;;;5043047;28;20085;-69
2023/04/27 10:45:26;;;;;;;5.82;2.17;;;10.30;54.20;;;;;;4986004;28;20266;-69
2023/04/27 10:47:58;;;;;;;6.23;2.80;;;10.40;54.70;;;;;;4989362;28;20518;-69
2023/04/27 10:50:26;;;;;;;4.70;2.00;;;10.40;55.50;;;;;;4987127;28;20250;-69
2023/04/27 10:52:53;;;;;;;9.18;3.13;;;10.40;56.50;;;;;;4987664;28;20042;-69
2023/04/27 10:55:22;;;;;;;10.98;3.67;;;10.50;55.10;;;;;;4988400;28;20054;-69
2023/04/27 10:57:50;;;;;;;7.25;2.60;;;10.60;54.90;;;;;;4988540;28;20050;-69
2023/04/27 11:00:25;;;;;;;7.13;2.47;;;10.60;54.20;;;;;;5007149;28;20054;-69
2023/04/27 11:02:53;;;;;;;6.18;2.67;;;10.70;53.50;;;;;;4986700;28;20282;-69
2023/04/27 11:05:23;;;;;;;6.47;2.55;;;10.70;54.10;;;;;;4987937;28;20050;-68
2023/04/27 11:07:51;;;;;;;6.78;2.65;;;10.80;54.30;;;;;;4988692;28;20057;-69
2023/04/27 11:10:19;;;;;;;6.35;2.55;;;10.80;54.40;;;;;;4986647;28;20178;-69
2023/04/27 11:12:47;;;;;;;6.43;2.60;;;10.90;54.30;;;;;;4992510;28;20082;-69
2023/04/27 11:15:14;;;;;;;5.88;2.90;;;10.90;54.10;;;;;;5006521;28;20301;-68
2023/04/27 11:17:43;;;;;;;6.53;2.72;;;11.00;52.60;;;;;;5007905;28;20173;-68
2023/04/27 11:20:10;;;;;;;7.78;2.90;;;11.00;53.40;;;;;;4987292;28;20058;-69
2023/04/27 11:22:45;;;;;;;6.35;2.55;;;11.00;53.50;;;;;;4987977;28;20050;-69
2023/04/27 11:25:12;;;;;;;4.80;2.70;;;11.10;53.90;;;;;;5005101;28;20056;-68
2023/04/27 11:27:41;;;;;;;6.75;2.83;;;11.10;54.40;;;;;;4987928;28;20285;-69
2023/04/27 11:30:20;;;;;;;7.68;2.95;;;11.10;53.70;;;;;;5004932;28;21024;-69
2023/04/27 11:32:49;;;;;;;7.28;2.40;;;11.20;53.40;;;;;;4988055;28;20666;-69
2023/04/27 11:35:17;;;;;;;6.25;3.17;;;11.30;52.80;;;;;;5005000;28;20058;-69
2023/04/27 11:37:46;;;;;;;6.77;3.00;;;11.30;52.20;;;;;;5003084;28;20133;-69
2023/04/27 11:40:14;;;;;;;6.57;2.90;;;11.30;52.40;;;;;;5006056;28;20290;-69
2023/04/27 11:42:45;;;;;;;4.90;2.63;;;11.40;52.10;;;;;;4987181;28;20227;-69
2023/04/27 11:45:12;;;;;;;6.43;2.97;;;11.40;52.00;;;;;;4987421;28;20158;-68
2023/04/27 11:47:46;;;;;;;5.35;2.90;;;11.40;50.90;;;;;;5005635;28;20902;-68
2023/04/27 11:50:14;;;;;;;5.47;2.73;;;11.40;51.00;;;;;;4987856;28;20054;-68
2023/04/27 11:52:41;;;;;;;6.00;2.60;;;11.40;51.00;;;;;;4986487;28;20255;-68
2023/04/27 11:55:14;;;;;;;7.45;2.92;;;11.40;51.40;;;;;;4986590;28;20056;-68
2023/04/27 11:57:42;;;;;;;6.53;2.80;;;11.40;51.30;;;;;;5006890;28;20066;-68
2023/04/27 12:00:11;;;;;;;6.90;2.70;;;11.40;51.70;;;;;;4986839;28;20496;-68
2023/04/27 12:02:41;;;;;;;7.50;2.63;;;11.50;52.10;;;;;;4986475;28;20928;-69
2023/04/27 12:05:10;;;;;;;6.70;2.60;;;11.50;52.50;;;;;;5006543;28;20351;-68
2023/04/27 12:07:40;;;;;;;6.97;3.08;;;11.50;52.90;;;;;;4988260;28;20097;-68
2023/04/27 12:10:08;;;;;;;6.95;3.17;;;11.60;52.60;;;;;;4987333;28;20074;-69
2023/04/27 12:12:35;;;;;;;5.82;2.42;;;11.60;52.20;;;;;;5006340;28;20082;-69
2023/04/27 12:15:03;;;;;;;7.80;3.10;;;11.70;52.00;;;;;;5007261;28;20678;-69
2023/04/27 12:17:31;;;;;;;5.90;2.70;;;11.70;51.10;;;;;;4993425;28;20282;-69
2023/04/27 12:19:58;;;;;;;7.25;3.25;;;11.80;51.10;;;;;;5010392;28;20046;-69
2023/04/27 12:22:25;;;;;;;6.88;2.65;;;11.80;50.60;;;;;;5011338;28;20046;-69
2023/04/27 12:24:54;;;;;;;6.47;3.10;;;11.90;51.10;;;;;;5009340;28;20060;-69
2023/04/27 12:27:21;;;;;;;6.00;2.67;;;11.90;51.50;;;;;;4995582;28;20038;-70
2023/04/27 12:29:49;;;;;;;6.72;3.10;;;11.90;51.50;;;;;;5009328;28;20250;-69
2023/04/27 12:32:16;;;;;;;7.07;2.95;;;12.00;51.20;;;;;;4992553;28;20043;-69
2023/04/27 12:34:43;;;;;;;7.10;3.20;;;12.00;51.40;;;;;;5010045;28;20527;-69
2023/04/27 12:37:09;;;;;;;6.40;3.42;;;12.10;50.40;;;;;;4992691;28;20104;-69
2023/04/27 12:39:36;;;;;;;6.03;2.57;;;12.10;50.40;;;;;;4991887;28;20069;-69
2023/04/27 12:42:05;;;;;;;5.50;2.53;;;12.20;50.10;;;;;;5009905;28;20258;-69
2023/04/27 12:44:32;;;;;;;5.97;2.53;;;12.30;50.10;;;;;;5008426;28;20051;-69
2023/04/27 12:46:59;;;;;;;6.18;2.47;;;12.30;49.70;;;;;;4992577;28;20489;-69
2023/04/27 12:49:25;;;;;;;5.60;2.85;;;12.50;49.80;;;;;;4990092;28;20054;-69
2023/04/27 12:51:53;;;;;;;6.00;2.90;;;12.50;50.00;;;;;;4991759;28;20046;-69
2023/04/27 12:54:20;;;;;;;6.22;2.80;;;12.50;50.50;;;;;;4991702;28;20313;-69
2023/04/27 12:56:47;;;;;;;5.57;2.90;;;12.60;50.80;;;;;;4959980;28;20050;-69
2023/04/27 12:59:15;;;;;;;6.07;2.55;;;12.70;50.70;;;;;;5009702;28;20085;-69
2023/04/27 13:01:42;;;;;;;6.00;2.75;;;12.80;51.20;;;;;;5009082;28;20057;-69